Terminal Aerodrome Forecast
Issued by NWS

Home | Current Version | Previous Version | Text Only | Print | Product List | Glossary On
Versions: 1 2 3 4 5 6 7 8 9 10 11 12
000
FTUS45 KRIW 200526
TAFCPR
TAF
KCPR 200526Z 2006/2106 23015KT P6SM SCT080 WS010/24045KT
     FM201600 23020G30KT P6SM FEW080 WS015/24045KT
     FM201900 23027G42KT P6SM FEW070
     FM210100 26020G30KT P6SM SCT080 BKN250
     FM210500 25014KT P6SM FEW100 SCT250 WS020/27030KT=

USA.gov is the U.S. government's official web portal to all federal, state and local government web resources and services.